Fecha, hora, temperatura, viento dirección y velocidad, humedad y presión.

  • 26-02-2020 15:00:00 | 16.20°C | Sur |7.00 km/h | 33.00% | 952.50 hPa
  • 26-02-2020 14:00:00 | 14.80°C | Sur |3.00 km/h | 37.00% | 953.20 hPa
  • 26-02-2020 12:00:00 | 12.40°C | Norte |5.00 km/h | 41.00% | 954.00 hPa
  • 26-02-2020 12:00:00 | 12.40°C | Norte |5.00 km/h | 41.00% | 954.00 hPa
  • 26-02-2020 11:00:00 | 11.20°C | Norte |9.00 km/h | 47.00% | 954.30 hPa
  • 26-02-2020 10:00:00 | 8.90°C | Norte |11.00 km/h | 55.00% | 954.10 hPa
  • 26-02-2020 09:00:00 | 7.20°C | Oeste |13.00 km/h | 62.00% | 953.20 hPa
  • 26-02-2020 08:00:00 | 6.50°C | Oeste |17.00 km/h | 64.00% | 952.90 hPa
  • 26-02-2020 07:00:00 | 7.50°C | Oeste |22.00 km/h | 62.00% | 952.50 hPa
  • 26-02-2020 06:00:00 | 8.40°C | Oeste |24.00 km/h | 61.00% | 951.80 hPa
  • 26-02-2020 05:00:00 | 9.20°C | Oeste |18.00 km/h | 60.00% | 951.50 hPa
  • 26-02-2020 04:00:00 | 10.00°C | Oeste |22.00 km/h | 60.00% | 951.90 hPa
  • 26-02-2020 02:00:00 | 11.30°C | Oeste |16.00 km/h | 59.00% | 952.20 hPa
  • 26-02-2020 02:00:00 | 11.30°C | Oeste |16.00 km/h | 59.00% | 952.20 hPa
  • 26-02-2020 01:00:00 | 11.80°C | Oeste |25.00 km/h | 59.00% | 952.00 hPa
  • 26-02-2020 00:00:00 | 12.30°C | Oeste |23.00 km/h | 59.00% | 952.50 hPa
  • 25-02-2020 23:00:00 | 12.50°C | Oeste |22.00 km/h | 59.00% | 952.30 hPa
  • 25-02-2020 22:00:00 | 13.10°C | Oeste |20.00 km/h | 57.00% | 952.20 hPa
  • 25-02-2020 21:00:00 | 13.60°C | Oeste |22.00 km/h | 57.00% | 951.90 hPa
  • 25-02-2020 20:00:00 | 14.00°C | Oeste |15.00 km/h | 57.00% | 951.50 hPa
  • 25-02-2020 19:00:00 | 14.80°C | Oeste |30.00 km/h | 54.00% | 951.20 hPa
  • 25-02-2020 18:00:00 | 15.60°C | Oeste |26.00 km/h | 51.00% | 950.80 hPa
  • 25-02-2020 17:00:00 | 15.80°C | Oeste |27.00 km/h | 49.00% | 951.00 hPa
  • 25-02-2020 16:00:00 | 16.60°C | Oeste |24.00 km/h | 43.00% | 951.00 hPa
    • diseño web asturias Información sobre el estado de las mareas, altura de la marejada, temperatura del agua y otros datos de Gijón en Asturias.

      Surf Gijón